createdAt,value
2022-11-29T00:00:15.147Z,19.70
2022-11-29T00:01:15.172Z,20.30
2022-11-29T00:02:15.216Z,23.40
2022-11-29T00:03:15.308Z,21.30
2022-11-29T00:04:15.132Z,21.30
2022-11-29T00:05:15.090Z,24.30
2022-11-29T00:06:15.076Z,21.80
2022-11-29T00:07:15.105Z,30.20
2022-11-29T00:08:15.055Z,37.60
2022-11-29T00:09:15.074Z,42.40
2022-11-29T00:10:15.045Z,34.40
2022-11-29T00:11:15.010Z,55.60
2022-11-29T00:12:14.993Z,59.50
2022-11-29T00:13:15.078Z,38.90
2022-11-29T00:14:15.008Z,43.10
2022-11-29T00:15:15.741Z,35.00
2022-11-29T00:16:15.057Z,23.20
2022-11-29T00:17:14.968Z,41.00
2022-11-29T00:18:14.921Z,40.70
2022-11-29T00:19:14.910Z,40.30
2022-11-29T00:20:14.952Z,23.90
2022-11-29T00:21:14.893Z,21.20
2022-11-29T00:22:14.905Z,25.70
2022-11-29T00:23:14.866Z,20.40
2022-11-29T00:24:14.890Z,22.10
2022-11-29T00:25:14.857Z,23.60
2022-11-29T00:26:14.881Z,23.50
2022-11-29T00:27:14.827Z,24.60
2022-11-29T00:28:14.894Z,25.60
2022-11-29T00:29:14.825Z,48.10
2022-11-29T00:30:14.860Z,53.70
2022-11-29T00:31:14.834Z,55.60
2022-11-29T00:32:14.811Z,30.60
2022-11-29T00:33:14.757Z,20.80
2022-11-29T00:34:14.773Z,20.00
2022-11-29T00:35:14.736Z,19.00
2022-11-29T00:36:14.784Z,19.30
2022-11-29T00:37:14.772Z,20.90
2022-11-29T00:38:14.732Z,19.80
2022-11-29T00:39:14.720Z,19.90
2022-11-29T00:40:14.722Z,21.20
2022-11-29T00:41:14.691Z,21.80
2022-11-29T00:42:14.703Z,22.90
2022-11-29T00:43:14.687Z,26.00
2022-11-29T00:44:19.929Z,25.40
2022-11-29T00:45:14.665Z,34.30
2022-11-29T00:46:14.752Z,40.50
2022-11-29T00:47:14.681Z,42.20
2022-11-29T00:48:14.624Z,45.10
2022-11-29T00:49:14.593Z,34.20
2022-11-29T00:50:14.609Z,42.60
2022-11-29T00:51:14.620Z,38.20
2022-11-29T00:52:14.651Z,35.80
2022-11-29T00:53:14.619Z,31.30
2022-11-29T00:54:14.610Z,36.70
2022-11-29T00:55:14.542Z,37.40
2022-11-29T00:56:14.528Z,37.50
2022-11-29T00:57:14.527Z,37.40
2022-11-29T00:58:14.493Z,40.90
2022-11-29T00:59:14.562Z,38.70
2022-11-29T01:00:14.515Z,47.50
2022-11-29T01:01:14.520Z,38.80
2022-11-29T01:02:14.507Z,42.00
2022-11-29T01:03:14.461Z,40.80
2022-11-29T01:04:14.432Z,46.30
2022-11-29T01:05:14.784Z,42.10
2022-11-29T01:06:14.484Z,40.50
2022-11-29T01:07:14.485Z,35.60
2022-11-29T01:08:14.480Z,41.60
2022-11-29T01:09:14.455Z,41.70
2022-11-29T01:10:14.398Z,38.40
2022-11-29T01:11:14.485Z,37.30
2022-11-29T01:12:14.369Z,40.20
2022-11-29T01:13:14.406Z,37.30
2022-11-29T01:14:14.346Z,39.10
2022-11-29T01:15:14.346Z,40.70
2022-11-29T01:16:14.398Z,39.20
2022-11-29T01:17:14.309Z,40.00
2022-11-29T01:18:14.361Z,38.70
2022-11-29T01:19:14.343Z,39.00
2022-11-29T01:20:14.318Z,31.90
2022-11-29T01:21:14.261Z,30.20
2022-11-29T01:22:14.269Z,37.00
2022-11-29T01:23:14.246Z,36.00
2022-11-29T01:24:14.238Z,38.20
2022-11-29T01:25:14.249Z,32.60
2022-11-29T01:26:14.221Z,39.50
2022-11-29T01:27:14.209Z,28.90
2022-11-29T01:28:14.235Z,35.40
2022-11-29T01:29:14.220Z,40.20
2022-11-29T01:30:14.186Z,35.80
2022-11-29T01:31:14.223Z,33.40
2022-11-29T01:32:14.139Z,40.70
2022-11-29T01:33:14.159Z,23.50
2022-11-29T01:34:14.132Z,31.90
2022-11-29T01:35:14.145Z,29.20
2022-11-29T01:36:14.124Z,25.50
2022-11-29T01:37:14.103Z,24.20
2022-11-29T01:38:14.070Z,25.30
2022-11-29T01:39:14.108Z,26.50
2022-11-29T01:40:14.080Z,22.60
2022-11-29T01:41:14.047Z,23.40
2022-11-29T01:42:14.098Z,24.80
2022-11-29T01:43:14.064Z,24.70
2022-11-29T01:44:14.022Z,23.80
2022-11-29T01:45:14.108Z,23.90
2022-11-29T01:46:14.025Z,23.50
2022-11-29T01:47:13.992Z,25.00
2022-11-29T01:48:13.971Z,24.10
2022-11-29T01:49:13.980Z,23.80
2022-11-29T01:50:13.988Z,27.30
2022-11-29T01:51:13.966Z,35.10
2022-11-29T01:52:13.947Z,33.30
2022-11-29T01:53:13.969Z,35.70
2022-11-29T01:54:13.922Z,45.20
2022-11-29T01:55:13.984Z,28.30
2022-11-29T01:56:13.963Z,43.90
2022-11-29T01:57:13.917Z,28.40
2022-11-29T01:58:13.888Z,35.20
2022-11-29T01:59:13.867Z,30.80
2022-11-29T02:00:13.872Z,31.80
2022-11-29T02:01:13.975Z,38.40
2022-11-29T02:02:13.854Z,33.90
2022-11-29T02:03:13.832Z,39.50
2022-11-29T02:04:13.854Z,36.50
2022-11-29T02:05:13.859Z,28.40
2022-11-29T02:06:13.801Z,36.20
2022-11-29T02:07:13.775Z,28.60
2022-11-29T02:08:13.823Z,30.00
2022-11-29T02:09:13.790Z,33.90
2022-11-29T02:10:13.764Z,32.60
2022-11-29T02:11:13.767Z,37.90
2022-11-29T02:12:13.715Z,33.30
2022-11-29T02:13:13.721Z,38.80
2022-11-29T02:14:13.756Z,34.30
2022-11-29T02:15:13.709Z,28.50
2022-11-29T02:16:13.782Z,32.30
2022-11-29T02:17:13.688Z,28.40
2022-11-29T02:18:13.736Z,29.70
2022-11-29T02:19:13.725Z,33.80
2022-11-29T02:20:13.688Z,31.50
2022-11-29T02:21:13.647Z,35.00
2022-11-29T02:22:13.644Z,37.40
2022-11-29T02:23:13.645Z,35.90
2022-11-29T02:24:13.667Z,34.90
2022-11-29T02:25:13.625Z,37.60
2022-11-29T02:26:13.591Z,32.50
2022-11-29T02:27:13.573Z,37.50
2022-11-29T02:28:13.609Z,35.90
2022-11-29T02:29:13.565Z,36.00
2022-11-29T02:30:13.552Z,33.40
2022-11-29T02:31:13.646Z,36.30
2022-11-29T02:32:13.505Z,35.30
2022-11-29T02:33:13.531Z,37.60
2022-11-29T02:34:13.517Z,35.20
2022-11-29T02:35:13.502Z,33.60
2022-11-29T02:36:13.482Z,30.30
2022-11-29T02:37:13.539Z,31.90
2022-11-29T02:38:13.509Z,32.70
2022-11-29T02:39:13.476Z,33.50
2022-11-29T02:40:13.470Z,34.30
2022-11-29T02:41:13.433Z,32.10
2022-11-29T02:42:13.426Z,34.60
2022-11-29T02:43:13.446Z,33.70
2022-11-29T02:44:13.406Z,32.70
2022-11-29T02:45:13.373Z,34.40
2022-11-29T02:46:13.392Z,35.30
2022-11-29T02:47:13.411Z,33.60
2022-11-29T02:48:13.370Z,32.50
2022-11-29T02:49:13.342Z,33.00
2022-11-29T02:50:13.317Z,35.50
2022-11-29T02:51:13.333Z,35.90
2022-11-29T02:52:13.361Z,34.80
2022-11-29T02:53:13.364Z,33.70
2022-11-29T02:54:13.311Z,34.00
2022-11-29T02:55:13.462Z,34.20
2022-11-29T02:56:13.310Z,33.50
2022-11-29T02:57:13.294Z,31.10
2022-11-29T02:58:13.262Z,33.00
2022-11-29T02:59:13.233Z,34.20
2022-11-29T03:00:13.239Z,34.90
2022-11-29T03:01:13.238Z,34.50
2022-11-29T03:02:13.240Z,34.80
2022-11-29T03:03:13.242Z,33.60
2022-11-29T03:04:13.196Z,35.00
2022-11-29T03:05:13.192Z,30.50
2022-11-29T03:06:13.164Z,31.30
2022-11-29T03:07:13.149Z,33.10
2022-11-29T03:08:13.154Z,33.10
2022-11-29T03:09:13.163Z,34.70
2022-11-29T03:10:13.134Z,36.00
2022-11-29T03:11:13.131Z,33.60
2022-11-29T03:12:13.128Z,37.40
2022-11-29T03:13:13.134Z,41.40
2022-11-29T03:14:13.054Z,36.80
2022-11-29T03:15:13.116Z,34.80
2022-11-29T03:16:13.083Z,34.30
2022-11-29T03:17:13.054Z,35.30
2022-11-29T03:18:13.075Z,34.80
2022-11-29T03:19:13.104Z,34.80
2022-11-29T03:20:13.020Z,36.80
2022-11-29T03:21:13.003Z,37.40
2022-11-29T03:22:12.978Z,36.90
2022-11-29T03:23:12.997Z,36.00
2022-11-29T03:24:12.964Z,35.50
2022-11-29T03:25:12.975Z,36.70
2022-11-29T03:26:12.953Z,33.20
2022-11-29T03:27:12.940Z,33.60
2022-11-29T03:28:13.016Z,36.00
2022-11-29T03:29:12.963Z,35.40
2022-11-29T03:30:12.913Z,35.50
2022-11-29T03:31:12.998Z,33.20
2022-11-29T03:32:12.897Z,31.90
2022-11-29T03:33:12.898Z,33.80
2022-11-29T03:34:12.897Z,31.00
2022-11-29T03:35:12.858Z,34.60
2022-11-29T03:36:12.875Z,29.80
2022-11-29T03:37:12.930Z,31.00
2022-11-29T03:38:12.856Z,30.00
2022-11-29T03:39:12.857Z,29.80
2022-11-29T03:40:12.804Z,30.30
2022-11-29T03:41:12.785Z,28.60
2022-11-29T03:42:12.772Z,30.60
2022-11-29T03:43:12.773Z,31.80
2022-11-29T03:44:12.770Z,32.30
2022-11-29T03:45:12.759Z,30.40
2022-11-29T03:46:12.740Z,29.60
2022-11-29T03:47:12.802Z,30.30
2022-11-29T03:48:12.778Z,30.30
2022-11-29T03:49:12.705Z,30.30
2022-11-29T03:50:12.705Z,31.40
2022-11-29T03:51:12.716Z,30.30
2022-11-29T03:52:12.682Z,29.90
2022-11-29T03:53:12.686Z,32.20
2022-11-29T03:54:12.647Z,30.70
2022-11-29T03:55:12.704Z,33.20
2022-11-29T03:56:12.617Z,33.30
2022-11-29T03:57:12.666Z,32.20
2022-11-29T03:58:12.626Z,30.30
2022-11-29T03:59:12.621Z,32.70
2022-11-29T04:00:12.635Z,31.60
2022-11-29T04:01:12.639Z,31.30
2022-11-29T04:02:12.618Z,30.20
2022-11-29T04:03:12.556Z,33.50
2022-11-29T04:04:12.553Z,31.70
2022-11-29T04:05:12.553Z,33.60
2022-11-29T04:06:12.528Z,34.80
2022-11-29T04:07:12.541Z,35.80
2022-11-29T04:08:12.502Z,37.10
2022-11-29T04:09:12.568Z,39.20
2022-11-29T04:10:12.519Z,38.50
2022-11-29T04:11:12.490Z,36.00
2022-11-29T04:12:12.466Z,36.50
2022-11-29T04:13:12.491Z,34.20
2022-11-29T04:14:12.476Z,30.50
2022-11-29T04:15:15.490Z,34.70
2022-11-29T04:16:12.493Z,29.20
2022-11-29T04:17:12.477Z,34.80
2022-11-29T04:18:12.409Z,37.00
2022-11-29T04:19:12.442Z,38.10
2022-11-29T04:20:12.418Z,36.80
2022-11-29T04:21:12.375Z,36.20
2022-11-29T04:22:12.364Z,37.10
2022-11-29T04:23:12.430Z,37.60
2022-11-29T04:24:12.392Z,35.30
2022-11-29T04:25:12.363Z,39.80
2022-11-29T04:26:12.354Z,38.20
2022-11-29T04:27:12.333Z,36.20
2022-11-29T04:28:12.294Z,36.00
2022-11-29T04:29:12.266Z,36.50
2022-11-29T04:30:12.292Z,31.50
2022-11-29T04:31:12.355Z,31.30
2022-11-29T04:32:12.268Z,33.70
2022-11-29T04:33:12.260Z,32.40
2022-11-29T04:34:12.242Z,32.70
2022-11-29T04:35:12.229Z,33.50
2022-11-29T04:36:12.231Z,32.20
2022-11-29T04:37:12.240Z,33.60
2022-11-29T04:38:12.219Z,33.10
2022-11-29T04:39:12.195Z,33.60
2022-11-29T04:40:12.177Z,33.90
2022-11-29T04:41:12.215Z,31.80
2022-11-29T04:42:12.147Z,33.70
2022-11-29T04:43:12.149Z,31.40
2022-11-29T04:44:12.147Z,34.00
2022-11-29T04:45:12.143Z,34.10
2022-11-29T04:46:12.128Z,29.90
2022-11-29T04:47:12.149Z,30.00
2022-11-29T04:48:12.089Z,36.00
2022-11-29T04:49:12.077Z,36.60
2022-11-29T04:50:12.053Z,34.90
2022-11-29T04:51:12.081Z,38.00
2022-11-29T04:52:12.057Z,33.80
2022-11-29T04:53:12.057Z,31.10
2022-11-29T04:54:12.060Z,28.30
2022-11-29T04:55:13.890Z,30.50
2022-11-29T04:56:12.010Z,37.80
2022-11-29T04:57:12.042Z,33.20
2022-11-29T04:58:12.012Z,34.40
2022-11-29T04:59:12.000Z,31.20
2022-11-29T05:00:12.001Z,31.30
2022-11-29T05:01:11.962Z,33.40
2022-11-29T05:02:11.930Z,37.20
2022-11-29T05:03:11.933Z,34.10
2022-11-29T05:04:11.920Z,29.50
2022-11-29T05:05:11.911Z,29.60
2022-11-29T05:06:11.914Z,28.70
2022-11-29T05:07:11.960Z,27.00
2022-11-29T05:08:11.889Z,33.70
2022-11-29T05:09:11.889Z,31.70
2022-11-29T05:10:11.927Z,29.30
2022-11-29T05:11:11.858Z,25.50
2022-11-29T05:12:11.853Z,27.70
2022-11-29T05:13:11.847Z,30.60
2022-11-29T05:14:11.823Z,27.90
2022-11-29T05:15:11.822Z,33.10
2022-11-29T05:16:11.834Z,29.90
2022-11-29T05:17:11.796Z,26.60
2022-11-29T05:18:11.782Z,28.30
2022-11-29T05:19:11.789Z,26.60
2022-11-29T05:20:11.785Z,28.10
2022-11-29T05:21:11.775Z,30.50
2022-11-29T05:22:11.732Z,31.60
2022-11-29T05:23:11.773Z,33.40
2022-11-29T05:24:11.704Z,28.10
2022-11-29T05:25:11.809Z,27.40
2022-11-29T05:26:11.713Z,31.70
2022-11-29T05:27:11.686Z,29.00
2022-11-29T05:28:11.643Z,29.80
2022-11-29T05:29:11.682Z,27.90
2022-11-29T05:30:11.665Z,27.10
2022-11-29T05:31:11.713Z,28.60
2022-11-29T05:32:11.626Z,28.40
2022-11-29T05:33:11.608Z,26.10
2022-11-29T05:34:11.631Z,27.50
2022-11-29T05:35:11.699Z,26.80
2022-11-29T05:36:11.603Z,27.20
2022-11-29T05:37:11.604Z,28.00
2022-11-29T05:38:11.584Z,27.40
2022-11-29T05:39:11.586Z,26.50
2022-11-29T05:40:11.547Z,25.10
2022-11-29T05:41:11.520Z,27.70
2022-11-29T05:42:11.560Z,26.30
2022-11-29T05:43:12.407Z,28.50
2022-11-29T05:44:11.525Z,28.20
2022-11-29T05:45:11.533Z,27.10
2022-11-29T05:46:11.551Z,25.30
2022-11-29T05:47:11.465Z,30.30
2022-11-29T05:48:11.448Z,32.10
2022-11-29T05:49:11.482Z,31.70
2022-11-29T05:50:11.465Z,30.70
2022-11-29T05:51:11.465Z,28.40
2022-11-29T05:52:11.565Z,30.10
2022-11-29T05:53:11.471Z,29.80
2022-11-29T05:54:11.555Z,26.40
2022-11-29T05:55:11.478Z,26.40
2022-11-29T05:56:11.554Z,27.90
2022-11-29T05:57:11.488Z,26.20
2022-11-29T05:58:11.395Z,26.60
2022-11-29T05:59:11.461Z,24.20
2022-11-29T06:00:11.488Z,23.80
2022-11-29T06:01:11.493Z,22.60
2022-11-29T06:02:11.601Z,25.00
2022-11-29T06:03:11.571Z,24.90
2022-11-29T06:04:14.737Z,22.50
2022-11-29T06:05:11.426Z,26.90
2022-11-29T06:06:11.453Z,22.30
2022-11-29T06:07:11.427Z,24.40
2022-11-29T06:08:11.425Z,25.30
2022-11-29T06:09:11.404Z,23.90
2022-11-29T06:10:11.357Z,22.70
2022-11-29T06:11:11.374Z,21.20
2022-11-29T06:12:11.352Z,22.40
2022-11-29T06:13:11.372Z,23.60
2022-11-29T06:14:11.364Z,25.70
2022-11-29T06:15:11.199Z,27.00
2022-11-29T06:16:11.419Z,28.00
2022-11-29T06:17:11.269Z,27.80
2022-11-29T06:18:11.254Z,27.90
2022-11-29T06:19:11.259Z,27.00
2022-11-29T06:20:11.230Z,28.10
2022-11-29T06:21:11.300Z,27.90
2022-11-29T06:22:11.218Z,26.80
2022-11-29T06:23:11.234Z,28.10
2022-11-29T06:24:11.662Z,27.00
2022-11-29T06:25:11.411Z,26.50
2022-11-29T06:26:11.548Z,27.80
2022-11-29T06:27:11.273Z,27.30
2022-11-29T06:28:11.425Z,29.30
2022-11-29T06:29:11.355Z,29.50
2022-11-29T06:30:11.275Z,27.40
2022-11-29T06:31:11.451Z,27.20
2022-11-29T06:32:11.185Z,30.20
2022-11-29T06:33:11.588Z,27.50
2022-11-29T06:34:11.009Z,26.20
2022-11-29T06:35:10.964Z,26.80
2022-11-29T06:36:10.967Z,28.10
2022-11-29T06:37:10.946Z,29.90
2022-11-29T06:38:10.945Z,29.60
2022-11-29T06:39:10.980Z,31.20
2022-11-29T06:40:10.902Z,31.30
2022-11-29T06:41:10.911Z,30.80
2022-11-29T06:42:10.914Z,23.30
2022-11-29T06:43:10.860Z,24.00
2022-11-29T06:44:10.900Z,24.10
2022-11-29T06:45:10.829Z,23.50
2022-11-29T06:46:10.892Z,24.30
2022-11-29T06:47:10.777Z,23.60
2022-11-29T06:48:10.795Z,22.50
2022-11-29T06:49:10.845Z,22.60
2022-11-29T06:50:10.789Z,23.70
2022-11-29T06:51:10.820Z,24.10
2022-11-29T06:52:10.755Z,22.50
2022-11-29T06:53:10.729Z,25.60
2022-11-29T06:54:10.768Z,25.40
2022-11-29T06:55:10.696Z,23.20
2022-11-29T06:56:10.756Z,24.40
2022-11-29T06:57:10.692Z,25.20
2022-11-29T06:58:10.697Z,25.00
2022-11-29T06:59:10.724Z,25.70
2022-11-29T07:00:10.689Z,25.90
2022-11-29T07:01:10.745Z,26.40
2022-11-29T07:02:10.690Z,27.00
2022-11-29T07:03:10.847Z,27.40
2022-11-29T07:04:10.662Z,27.50
2022-11-29T07:05:10.673Z,27.50
2022-11-29T07:06:10.590Z,27.70
2022-11-29T07:07:10.571Z,28.70
2022-11-29T07:08:10.578Z,27.20
2022-11-29T07:09:10.562Z,28.80
2022-11-29T07:10:14.715Z,28.00
2022-11-29T07:11:10.618Z,31.00
2022-11-29T07:12:10.531Z,30.10
2022-11-29T07:13:10.623Z,30.70
2022-11-29T07:14:10.499Z,30.20
2022-11-29T07:15:11.321Z,31.60
2022-11-29T07:16:10.561Z,31.10
2022-11-29T07:17:10.503Z,29.00
2022-11-29T07:18:10.517Z,26.20
2022-11-29T07:19:10.463Z,30.10
2022-11-29T07:20:10.450Z,26.30
2022-11-29T07:21:10.427Z,24.90
2022-11-29T07:22:10.414Z,25.20
2022-11-29T07:23:10.433Z,24.10
2022-11-29T07:24:10.422Z,24.10
2022-11-29T07:25:10.395Z,25.80
2022-11-29T07:26:10.462Z,25.80
2022-11-29T07:27:10.354Z,25.70
2022-11-29T07:28:10.405Z,24.80
2022-11-29T07:29:10.414Z,22.80
2022-11-29T07:30:10.377Z,22.40
2022-11-29T07:31:10.358Z,22.30
2022-11-29T07:32:10.393Z,22.00
2022-11-29T07:33:10.331Z,23.80
2022-11-29T07:34:10.325Z,24.80
2022-11-29T07:35:10.293Z,25.60
2022-11-29T07:36:10.260Z,26.70
2022-11-29T07:37:10.291Z,26.30
2022-11-29T07:38:10.307Z,28.70
2022-11-29T07:39:10.285Z,32.00
2022-11-29T07:40:10.250Z,30.80
2022-11-29T07:41:10.227Z,29.20
2022-11-29T07:42:10.265Z,27.50
2022-11-29T07:43:10.263Z,25.30
2022-11-29T07:44:10.184Z,24.70
2022-11-29T07:45:10.211Z,28.10
2022-11-29T07:46:10.166Z,26.90
2022-11-29T07:47:10.149Z,25.10
2022-11-29T07:48:10.168Z,27.20
2022-11-29T07:49:10.140Z,25.30
2022-11-29T07:50:10.133Z,26.10
2022-11-29T07:51:10.131Z,30.10
2022-11-29T07:52:10.173Z,30.90
2022-11-29T07:53:10.101Z,28.60
2022-11-29T07:54:10.086Z,28.60
2022-11-29T07:55:14.339Z,31.70
2022-11-29T07:56:10.137Z,29.30
2022-11-29T07:57:10.083Z,34.40
2022-11-29T07:58:10.044Z,33.10
2022-11-29T07:59:10.050Z,37.30
2022-11-29T08:00:10.065Z,36.20
2022-11-29T08:01:10.061Z,33.10
2022-11-29T08:02:11.809Z,32.60
2022-11-29T08:03:10.019Z,33.30
2022-11-29T08:04:10.007Z,34.30
2022-11-29T08:05:10.040Z,34.10
2022-11-29T08:06:10.004Z,35.70
2022-11-29T08:07:09.978Z,36.40
2022-11-29T08:08:09.991Z,41.40
2022-11-29T08:09:09.906Z,39.80
2022-11-29T08:10:09.941Z,37.00
2022-11-29T08:11:09.926Z,39.00
2022-11-29T08:12:09.938Z,38.80
2022-11-29T08:13:09.868Z,40.40
2022-11-29T08:14:09.912Z,38.80
2022-11-29T08:15:09.942Z,40.00
2022-11-29T08:16:10.045Z,38.10
2022-11-29T08:17:09.841Z,37.60
2022-11-29T08:18:09.912Z,39.00
2022-11-29T08:19:09.875Z,38.90
2022-11-29T08:20:09.945Z,37.20
2022-11-29T08:21:09.858Z,40.70
2022-11-29T08:22:09.837Z,38.50
2022-11-29T08:23:09.835Z,39.80
2022-11-29T08:24:09.817Z,41.10
2022-11-29T08:25:09.834Z,41.20
2022-11-29T08:26:09.782Z,38.90
2022-11-29T08:27:09.727Z,42.70
2022-11-29T08:28:09.750Z,40.40
2022-11-29T08:29:09.762Z,38.20
2022-11-29T08:30:09.734Z,39.60
2022-11-29T08:31:09.755Z,36.20
2022-11-29T08:32:09.713Z,39.00
2022-11-29T08:33:09.681Z,37.10
2022-11-29T08:34:09.678Z,38.70
2022-11-29T08:35:09.758Z,35.30
2022-11-29T08:36:09.727Z,38.30
2022-11-29T08:37:09.661Z,38.00
2022-11-29T08:38:09.717Z,37.00
2022-11-29T08:39:09.863Z,37.80
2022-11-29T08:40:09.639Z,38.20
2022-11-29T08:41:09.600Z,40.40
2022-11-29T08:42:09.635Z,40.00
2022-11-29T08:43:09.590Z,38.00
2022-11-29T08:44:09.623Z,34.90
2022-11-29T08:45:09.597Z,37.90
2022-11-29T08:46:12.505Z,39.30
2022-11-29T08:47:09.578Z,37.70
2022-11-29T08:48:09.559Z,34.70
2022-11-29T08:49:09.527Z,36.10
2022-11-29T08:50:09.530Z,34.30
2022-11-29T08:51:09.534Z,34.90
2022-11-29T08:52:09.521Z,35.40
2022-11-29T08:53:09.475Z,36.60
2022-11-29T08:54:09.491Z,36.40
2022-11-29T08:55:09.511Z,36.90
2022-11-29T08:56:41.636Z,34.40
2022-11-29T08:58:09.439Z,36.20
2022-11-29T08:59:09.380Z,33.90
2022-11-29T09:00:09.492Z,33.20
2022-11-29T09:01:09.524Z,35.90
2022-11-29T09:02:09.484Z,33.60
2022-11-29T09:03:09.415Z,35.10
2022-11-29T09:04:09.377Z,33.70
2022-11-29T09:05:09.415Z,33.40
2022-11-29T09:06:12.549Z,34.00
2022-11-29T09:07:09.344Z,33.90
2022-11-29T09:08:09.340Z,32.50
2022-11-29T09:09:09.333Z,33.80
2022-11-29T09:10:09.298Z,33.00
2022-11-29T09:11:09.815Z,32.60
2022-11-29T09:12:09.264Z,33.00
2022-11-29T09:13:09.253Z,33.60
2022-11-29T09:14:09.263Z,30.90
2022-11-29T09:15:09.230Z,33.20
2022-11-29T09:16:09.305Z,32.30
2022-11-29T09:17:09.258Z,32.70
2022-11-29T09:18:09.302Z,32.40
2022-11-29T09:19:09.206Z,32.30
2022-11-29T09:20:09.182Z,32.20
2022-11-29T09:21:09.193Z,33.80
2022-11-29T09:22:09.213Z,33.90
2022-11-29T09:23:09.182Z,31.90
2022-11-29T09:24:09.219Z,32.80
2022-11-29T09:25:09.118Z,34.20
2022-11-29T09:26:09.166Z,33.30
2022-11-29T09:27:09.100Z,33.70
2022-11-29T09:28:09.158Z,34.20
2022-11-29T09:29:09.091Z,31.10
2022-11-29T09:30:09.089Z,30.70
2022-11-29T09:31:09.079Z,30.80
2022-11-29T09:32:09.194Z,31.30
2022-11-29T09:33:09.057Z,30.20
2022-11-29T09:34:09.026Z,31.00
2022-11-29T09:35:09.007Z,31.10
2022-11-29T09:36:09.095Z,32.10
2022-11-29T09:37:09.034Z,32.90
2022-11-29T09:38:09.035Z,33.20
2022-11-29T09:39:09.004Z,33.40
2022-11-29T09:40:09.004Z,34.40
2022-11-29T09:41:09.052Z,35.00
2022-11-29T09:42:08.983Z,33.80
2022-11-29T09:43:08.967Z,32.60
2022-11-29T09:44:08.934Z,33.80
2022-11-29T09:45:08.933Z,34.20
2022-11-29T09:46:08.962Z,35.20
2022-11-29T09:47:08.896Z,33.10
2022-11-29T09:48:08.906Z,33.90
2022-11-29T09:49:08.892Z,33.00
2022-11-29T09:50:08.928Z,32.40
2022-11-29T09:51:08.949Z,32.00
2022-11-29T09:52:08.816Z,30.50
2022-11-29T09:53:08.879Z,30.90
2022-11-29T09:54:08.826Z,29.80
2022-11-29T09:55:08.792Z,27.80
2022-11-29T09:56:08.818Z,27.30
2022-11-29T09:57:10.835Z,26.70
2022-11-29T09:58:08.792Z,26.80
2022-11-29T09:59:08.812Z,26.30
2022-11-29T10:00:08.800Z,24.70
2022-11-29T10:01:08.811Z,25.50
2022-11-29T10:02:08.805Z,27.10
2022-11-29T10:03:08.724Z,24.90
2022-11-29T10:04:08.747Z,24.90
2022-11-29T10:05:08.721Z,25.10
2022-11-29T10:06:08.732Z,25.60
2022-11-29T10:07:08.699Z,24.10
2022-11-29T10:08:08.672Z,23.70
2022-11-29T10:09:08.697Z,25.50
2022-11-29T10:10:08.722Z,25.20
2022-11-29T10:11:08.669Z,25.60
2022-11-29T10:12:08.630Z,26.00
2022-11-29T10:13:08.706Z,26.20
2022-11-29T10:14:08.673Z,25.30
2022-11-29T10:15:08.600Z,25.50
2022-11-29T10:16:08.665Z,25.60
2022-11-29T10:17:08.604Z,26.10
2022-11-29T10:18:08.612Z,24.40
2022-11-29T10:19:08.580Z,26.60
2022-11-29T10:20:08.565Z,25.60
2022-11-29T10:21:08.544Z,26.80
2022-11-29T10:22:08.498Z,28.20
2022-11-29T10:23:08.592Z,26.90
2022-11-29T10:24:08.533Z,27.70
2022-11-29T10:25:08.502Z,29.20
2022-11-29T10:26:08.510Z,29.50
2022-11-29T10:27:08.533Z,28.50
2022-11-29T10:28:08.460Z,29.30
2022-11-29T10:29:08.466Z,29.50
2022-11-29T10:30:08.442Z,30.80
2022-11-29T10:31:08.485Z,31.20
2022-11-29T10:32:10.359Z,31.90
2022-11-29T10:33:08.421Z,32.50
2022-11-29T10:34:08.402Z,31.30
2022-11-29T10:35:08.407Z,32.10
2022-11-29T10:36:08.400Z,30.80
2022-11-29T10:37:08.373Z,31.80
2022-11-29T10:38:29.620Z,30.60
2022-11-29T10:39:14.183Z,32.00
2022-11-29T10:40:08.386Z,31.60
2022-11-29T10:41:08.341Z,31.80
2022-11-29T10:42:08.382Z,31.00
2022-11-29T10:43:08.345Z,29.20
2022-11-29T10:44:08.320Z,29.80
2022-11-29T10:45:08.283Z,29.40
2022-11-29T10:46:08.288Z,28.60
2022-11-29T10:47:11.060Z,29.00
2022-11-29T10:48:08.259Z,29.90
2022-11-29T10:49:08.285Z,28.00
2022-11-29T10:50:08.228Z,29.60
2022-11-29T10:51:08.227Z,28.20
2022-11-29T10:52:08.227Z,28.20
2022-11-29T10:53:08.236Z,27.70
2022-11-29T10:54:08.176Z,28.80
2022-11-29T10:55:08.178Z,27.40
2022-11-29T10:56:08.154Z,26.90
2022-11-29T10:57:08.208Z,26.90
2022-11-29T10:58:08.166Z,26.60
2022-11-29T10:59:08.201Z,27.10
2022-11-29T11:00:08.120Z,26.30
2022-11-29T11:01:08.414Z,26.10
2022-11-29T11:02:08.119Z,25.10
2022-11-29T11:03:08.127Z,25.50
2022-11-29T11:04:08.063Z,24.90
2022-11-29T11:05:08.135Z,25.30
2022-11-29T11:06:08.072Z,25.60
2022-11-29T11:07:08.082Z,26.00
2022-11-29T11:08:08.018Z,26.30
2022-11-29T11:09:08.006Z,27.20
2022-11-29T11:10:08.055Z,26.10
2022-11-29T11:11:08.031Z,27.50
2022-11-29T11:12:08.002Z,25.90
2022-11-29T11:13:08.008Z,27.40
2022-11-29T11:14:07.984Z,27.80
2022-11-29T11:15:07.951Z,26.30
2022-11-29T11:16:07.961Z,25.20
2022-11-29T11:17:08.025Z,24.10
2022-11-29T11:18:07.919Z,26.40
2022-11-29T11:19:07.961Z,26.10
2022-11-29T11:20:07.932Z,26.90
2022-11-29T11:21:07.902Z,26.10
2022-11-29T11:22:07.938Z,24.50
2022-11-29T11:23:07.913Z,25.30
2022-11-29T11:24:07.904Z,25.00
2022-11-29T11:25:07.877Z,26.30
2022-11-29T11:26:07.862Z,27.70
2022-11-29T11:27:07.834Z,28.10
2022-11-29T11:28:07.825Z,25.80
2022-11-29T11:29:07.839Z,27.20
2022-11-29T11:30:07.807Z,27.90
2022-11-29T11:31:07.881Z,27.10
2022-11-29T11:32:07.846Z,27.20
2022-11-29T11:33:07.850Z,27.70
2022-11-29T11:34:07.795Z,39.90
2022-11-29T11:35:07.790Z,28.20
2022-11-29T11:36:07.818Z,32.80
2022-11-29T11:37:07.730Z,26.70
2022-11-29T11:38:07.758Z,25.50
2022-11-29T11:39:07.764Z,24.50
2022-11-29T11:40:07.751Z,24.80
2022-11-29T11:41:07.744Z,24.30
2022-11-29T11:42:07.697Z,26.00
2022-11-29T11:43:07.672Z,23.90
2022-11-29T11:44:15.231Z,24.50
2022-11-29T11:45:07.680Z,24.80
2022-11-29T11:46:08.296Z,24.80
2022-11-29T11:47:07.666Z,24.60
2022-11-29T11:48:07.584Z,26.40
2022-11-29T11:49:07.639Z,23.70
2022-11-29T11:50:07.618Z,26.70
2022-11-29T11:51:07.604Z,25.10
2022-11-29T11:52:07.565Z,25.10
2022-11-29T11:53:07.630Z,24.90
2022-11-29T11:54:07.556Z,26.20
2022-11-29T11:55:07.565Z,26.60
2022-11-29T11:56:07.537Z,26.60
2022-11-29T11:57:07.542Z,26.90
2022-11-29T11:58:10.651Z,25.50
2022-11-29T11:59:07.505Z,25.50
2022-11-29T12:00:07.603Z,26.00
2022-11-29T12:01:07.523Z,27.20
2022-11-29T12:02:07.578Z,26.60
2022-11-29T12:03:07.594Z,25.60
2022-11-29T12:04:07.478Z,27.80
2022-11-29T12:05:07.436Z,26.20
2022-11-29T12:06:07.456Z,25.90
2022-11-29T12:07:07.423Z,26.50
2022-11-29T12:08:08.626Z,26.40
2022-11-29T12:09:07.459Z,27.40
2022-11-29T12:10:07.383Z,27.40
2022-11-29T12:11:07.783Z,26.10
2022-11-29T12:12:07.363Z,26.00
2022-11-29T12:13:07.399Z,27.10
2022-11-29T12:14:07.357Z,26.10
2022-11-29T12:15:07.384Z,27.30
2022-11-29T12:16:07.333Z,25.10
2022-11-29T12:17:07.322Z,25.60
2022-11-29T12:18:07.284Z,27.50
2022-11-29T12:19:07.285Z,27.30
2022-11-29T12:20:07.306Z,26.10
2022-11-29T12:21:07.419Z,26.20
2022-11-29T12:22:07.324Z,26.90
2022-11-29T12:23:07.276Z,28.70
2022-11-29T12:24:07.233Z,26.90
2022-11-29T12:25:07.235Z,27.60
2022-11-29T12:26:07.265Z,26.80
2022-11-29T12:27:07.273Z,27.70
2022-11-29T12:28:07.258Z,28.30
2022-11-29T12:29:07.193Z,28.30
2022-11-29T12:30:07.189Z,26.30
2022-11-29T12:31:07.294Z,26.60
2022-11-29T12:32:07.337Z,26.30
2022-11-29T12:33:07.195Z,26.20
2022-11-29T12:34:07.163Z,27.40
2022-11-29T12:35:07.170Z,25.00
2022-11-29T12:36:07.210Z,27.10
2022-11-29T12:37:07.090Z,26.50
2022-11-29T12:38:07.102Z,25.80
2022-11-29T12:39:07.099Z,27.50
2022-11-29T12:40:07.106Z,26.40
2022-11-29T12:41:07.050Z,28.80
2022-11-29T12:42:07.179Z,31.10
2022-11-29T12:43:07.091Z,32.40
2022-11-29T12:44:07.020Z,35.60
2022-11-29T12:45:07.053Z,33.80
2022-11-29T12:46:07.064Z,30.30
2022-11-29T12:47:34.640Z,29.00
2022-11-29T12:48:07.093Z,27.80
2022-11-29T12:49:06.954Z,29.30
2022-11-29T12:50:06.935Z,28.60
2022-11-29T12:51:07.002Z,27.00
2022-11-29T12:52:06.958Z,27.70
2022-11-29T12:53:07.001Z,25.70